Time;durP1;ratioP1;P1;durP2;ratioP2;P2;SDS_P1;SDS_P2;PMS_P1;PMS_P2;Temp;Humidity;BMP_temperature;BMP_pressure;BME280_temperature;BME280_humidity;BME280_pressure;Samples;Min_cycle;Max_cycle;Signal;HPM_P1;HPM_P2
2021/05/21 00:02:00;;;;;;;19.98;3.25;;;;;;;11.06;75.48;100107.00;5036596;28;20033;-79
2021/05/21 00:04:27;;;;;;;19.77;3.58;;;;;;;11.09;75.85;100109.22;4991736;28;20036;-79
2021/05/21 00:06:52;;;;;;;20.85;3.60;;;;;;;11.07;75.52;100105.91;5070437;28;20044;-79
2021/05/21 00:09:18;;;;;;;26.75;4.40;;;;;;;11.06;75.15;100104.22;5022268;28;20029;-79
2021/05/21 00:11:43;;;;;;;20.08;3.35;;;;;;;11.04;75.51;100104.56;5034661;28;20037;-79
2021/05/21 00:14:09;;;;;;;25.10;3.90;;;;;;;10.98;75.69;100096.59;5048708;28;20025;-79
2021/05/21 00:16:35;;;;;;;19.15;3.50;;;;;;;10.98;76.00;100103.00;5039574;28;20420;-79
2021/05/21 00:19:00;;;;;;;22.50;3.47;;;;;;;10.98;75.56;100100.22;5035457;28;20555;-79
2021/05/21 00:21:26;;;;;;;19.85;3.90;;;;;;;10.99;75.89;100093.53;5002477;28;20048;-79
2021/05/21 00:23:51;;;;;;;22.02;4.38;;;;;;;10.98;75.54;100103.00;5053020;28;20030;-79
2021/05/21 00:26:17;;;;;;;24.30;3.65;;;;;;;10.95;75.48;100081.41;5014213;28;20040;-79
2021/05/21 00:28:42;;;;;;;24.60;4.50;;;;;;;10.91;75.99;100085.91;5042684;28;20025;-79
2021/05/21 00:31:08;;;;;;;22.48;3.55;;;;;;;10.94;75.70;100085.28;5035282;28;20038;-79
2021/05/21 00:33:33;;;;;;;18.42;3.17;;;;;;;10.94;75.51;100088.88;5017378;28;20036;-79
2021/05/21 00:35:59;;;;;;;18.80;3.60;;;;;;;10.93;75.55;100087.25;5021098;28;20070;-79
2021/05/21 00:38:24;;;;;;;26.80;4.22;;;;;;;10.90;75.57;100079.53;5011380;28;20052;-79
2021/05/21 00:40:50;;;;;;;30.05;3.53;;;;;;;10.89;75.76;100069.56;5016106;28;20032;-79
2021/05/21 00:43:16;;;;;;;28.88;3.70;;;;;;;10.87;76.38;100069.03;4985869;28;20037;-79
2021/05/21 00:45:42;;;;;;;19.67;3.67;;;;;;;10.85;76.45;100070.47;4996225;28;20040;-79
2021/05/21 00:48:07;;;;;;;24.98;4.40;;;;;;;10.84;76.03;100066.88;5012788;28;20029;-79
2021/05/21 00:50:33;;;;;;;26.23;3.67;;;;;;;10.85;75.60;100079.63;4957911;28;20034;-79
2021/05/21 00:52:59;;;;;;;25.00;3.58;;;;;;;10.89;75.41;100061.22;5045969;28;20038;-79
2021/05/21 00:55:24;;;;;;;20.90;4.00;;;;;;;10.87;75.59;100068.22;5001619;28;20065;-79
2021/05/21 00:57:50;;;;;;;17.60;2.97;;;;;;;10.86;75.59;100056.25;5009574;28;20033;-79
2021/05/21 01:00:15;;;;;;;23.55;3.65;;;;;;;10.83;76.09;100067.16;5017722;28;20033;-79
2021/05/21 01:02:41;;;;;;;26.95;4.57;;;;;;;10.82;75.83;100060.78;4987682;28;20025;-79
2021/05/21 01:05:07;;;;;;;21.65;3.65;;;;;;;10.83;75.92;100059.66;5001257;28;20061;-78
2021/05/21 01:07:33;;;;;;;30.13;3.75;;;;;;;10.79;75.70;100061.41;5032964;28;20025;-79
2021/05/21 01:09:58;;;;;;;26.73;4.60;;;;;;;10.77;75.98;100066.44;5002596;28;20037;-79
2021/05/21 01:12:24;;;;;;;18.35;3.33;;;;;;;10.74;75.85;100055.94;5019192;28;20033;-78
2021/05/21 01:14:51;;;;;;;20.95;3.88;;;;;;;10.71;75.76;100049.03;5011836;28;20033;-78
2021/05/21 01:17:16;;;;;;;27.63;4.53;;;;;;;10.76;76.26;100055.66;5008515;28;20570;-78
2021/05/21 01:19:42;;;;;;;21.48;3.83;;;;;;;10.67;76.17;100055.50;5009827;28;20029;-78
2021/05/21 01:22:08;;;;;;;22.27;4.10;;;;;;;10.69;76.00;100051.28;5007801;28;20021;-78
2021/05/21 01:24:34;;;;;;;20.98;3.17;;;;;;;10.70;76.36;100054.94;5002854;28;20113;-78
2021/05/21 01:27:00;;;;;;;22.40;3.85;;;;;;;10.66;76.08;100040.81;5034390;28;20029;-79
2021/05/21 01:29:27;;;;;;;16.60;3.63;;;;;;;10.65;76.32;100038.34;5045967;28;20099;-79
2021/05/21 01:31:52;;;;;;;20.50;4.60;;;;;;;10.63;76.53;100040.59;5000462;28;20043;-78
2021/05/21 01:34:18;;;;;;;18.98;3.20;;;;;;;10.59;76.97;100037.63;5003228;28;20026;-79
2021/05/21 01:36:44;;;;;;;20.48;4.05;;;;;;;10.60;76.80;100030.09;4998528;28;20057;-78
2021/05/21 01:39:10;;;;;;;28.67;4.38;;;;;;;10.60;77.35;100035.66;5017123;28;20448;-78
2021/05/21 01:41:36;;;;;;;24.80;4.38;;;;;;;10.59;76.97;100028.47;5019442;28;20041;-78
2021/05/21 01:44:06;;;;;;;22.42;3.92;;;;;;;10.58;77.26;100021.25;5052367;28;20037;-79
2021/05/21 01:46:32;;;;;;;23.75;3.90;;;;;;;10.59;76.88;100014.59;5051271;28;20075;-79
2021/05/21 01:48:57;;;;;;;20.00;3.80;;;;;;;10.58;77.09;100005.41;5030213;28;20052;-78
2021/05/21 01:51:23;;;;;;;19.98;3.50;;;;;;;10.55;77.04;100006.03;5040096;28;20029;-78
2021/05/21 01:53:48;;;;;;;26.40;5.18;;;;;;;10.54;77.08;99998.03;5021219;28;20032;-79
2021/05/21 01:56:14;;;;;;;23.10;4.00;;;;;;;10.55;77.53;99994.91;5023067;28;20029;-78
2021/05/21 01:58:39;;;;;;;17.88;3.58;;;;;;;10.55;76.65;99992.13;5005996;28;20034;-79
2021/05/21 02:01:05;;;;;;;29.45;4.57;;;;;;;10.54;77.00;99986.91;5025191;28;20063;-78
2021/05/21 02:03:31;;;;;;;23.90;4.10;;;;;;;10.53;76.71;99983.31;4991574;28;20036;-78
2021/05/21 02:05:56;;;;;;;25.50;3.85;;;;;;;10.52;76.65;99984.44;5024895;28;20394;-78
2021/05/21 02:08:25;;;;;;;26.83;4.57;;;;;;;10.51;76.59;99975.28;5009545;28;20053;-78
2021/05/21 02:10:54;;;;;;;24.67;3.88;;;;;;;10.55;76.48;99978.25;5041506;28;20021;-79
2021/05/21 02:13:20;;;;;;;28.80;4.22;;;;;;;10.52;76.95;99976.09;5029414;28;20040;-78
2021/05/21 02:15:46;;;;;;;23.50;4.25;;;;;;;10.52;76.62;99979.69;5053433;28;20021;-78
2021/05/21 02:18:11;;;;;;;26.85;4.32;;;;;;;10.49;76.81;99977.53;5067604;28;20032;-78
2021/05/21 02:20:37;;;;;;;24.00;4.22;;;;;;;10.50;76.54;99970.88;5024608;28;20032;-78
2021/05/21 02:23:04;;;;;;;20.35;3.47;;;;;;;10.46;76.61;99980.09;5058832;28;20029;-78
2021/05/21 02:25:29;;;;;;;22.60;4.30;;;;;;;10.41;76.78;99969.91;5027014;28;20028;-78
2021/05/21 02:27:55;;;;;;;21.17;3.63;;;;;;;10.42;77.19;99968.81;5007458;28;20101;-78
2021/05/21 02:30:20;;;;;;;21.05;4.15;;;;;;;10.42;76.83;99968.81;5008593;28;20033;-78
2021/05/21 02:32:46;;;;;;;25.88;3.92;;;;;;;10.42;76.82;99979.91;5029130;28;20033;-77
2021/05/21 02:35:12;;;;;;;24.10;4.05;;;;;;;10.37;77.23;99980.00;5057316;28;20040;-78
2021/05/21 02:37:37;;;;;;;28.13;3.90;;;;;;;10.34;77.36;99988.94;5074340;28;20045;-78
2021/05/21 02:40:06;;;;;;;25.25;4.13;;;;;;;10.37;77.31;99981.94;5036451;28;20029;-78
2021/05/21 02:42:32;;;;;;;20.30;3.60;;;;;;;10.36;76.86;99970.00;5041730;28;20029;-78
2021/05/21 02:44:57;;;;;;;21.95;4.00;;;;;;;10.37;77.01;99973.63;5056216;28;20040;-78
2021/05/21 02:47:23;;;;;;;24.80;3.67;;;;;;;10.34;77.30;99969.50;5000414;28;20020;-78
2021/05/21 02:49:48;;;;;;;15.93;3.55;;;;;;;10.35;76.92;99960.03;5056543;28;20392;-78
2021/05/21 02:52:14;;;;;;;23.00;4.20;;;;;;;10.31;77.43;99959.03;5041328;28;23400;-78
2021/05/21 02:54:39;;;;;;;23.90;3.65;;;;;;;10.28;76.94;99956.84;5010124;28;20504;-78
2021/05/21 02:57:05;;;;;;;20.75;3.80;;;;;;;10.27;77.09;99955.19;5022451;28;20040;-78
2021/05/21 02:59:30;;;;;;;17.83;3.63;;;;;;;10.28;77.03;99949.34;5010300;28;20036;-78
2021/05/21 03:01:56;;;;;;;20.48;4.07;;;;;;;10.28;77.11;99946.56;5072071;28;20033;-78
2021/05/21 03:04:21;;;;;;;21.23;3.75;;;;;;;10.26;76.99;99956.28;5037249;28;20079;-79
2021/05/21 03:06:47;;;;;;;25.70;3.80;;;;;;;10.26;77.26;99953.53;5007649;28;20040;-79
2021/05/21 03:09:12;;;;;;;23.90;3.67;;;;;;;10.26;76.89;99959.06;5036021;28;20033;-79
2021/05/21 03:11:38;;;;;;;23.63;4.28;;;;;;;10.25;77.17;99940.75;5033410;28;20099;-79
2021/05/21 03:14:03;;;;;;;27.08;4.82;;;;;;;10.22;77.16;99930.28;5019412;28;20091;-79
2021/05/21 03:16:29;;;;;;;18.30;3.17;;;;;;;10.23;76.85;99937.47;5027103;28;20497;-79
2021/05/21 03:18:54;;;;;;;27.45;4.20;;;;;;;10.22;76.71;99931.13;5023486;28;20132;-79
2021/05/21 03:21:20;;;;;;;17.30;3.38;;;;;;;10.20;76.83;99927.81;4991604;28;20024;-79
2021/05/21 03:23:45;;;;;;;24.67;3.42;;;;;;;10.19;76.45;99930.88;5038341;28;20037;-79
2021/05/21 03:26:11;;;;;;;20.95;3.60;;;;;;;10.19;76.64;99931.69;5020326;28;20033;-79
2021/05/21 03:28:39;;;;;;;15.73;3.10;;;;;;;10.17;76.99;99919.25;5037764;28;20083;-79
2021/05/21 03:31:05;;;;;;;22.55;3.60;;;;;;;10.13;76.88;99907.97;5021399;28;20159;-79
2021/05/21 03:33:31;;;;;;;19.17;3.70;;;;;;;10.14;76.82;99906.84;5052611;28;20416;-79
2021/05/21 03:35:56;;;;;;;25.35;3.83;;;;;;;10.12;76.79;99908.28;5051681;28;20028;-79
2021/05/21 03:38:24;;;;;;;19.17;3.67;;;;;;;10.06;76.76;99902.81;5009937;28;20052;-79
2021/05/21 03:40:49;;;;;;;19.38;3.70;;;;;;;10.04;77.14;99907.03;4990898;28;20033;-79
2021/05/21 03:43:15;;;;;;;17.90;3.28;;;;;;;10.05;76.74;99909.47;5024565;28;20544;-79
2021/05/21 03:45:40;;;;;;;24.42;3.75;;;;;;;9.98;77.38;99909.06;5021225;28;20032;-79
2021/05/21 03:48:06;;;;;;;27.00;4.10;;;;;;;9.99;77.86;99909.88;5008245;28;20032;-79
2021/05/21 03:50:32;;;;;;;23.60;3.67;;;;;;;9.99;77.28;99909.88;4991198;28;20025;-79
2021/05/21 03:52:57;;;;;;;18.40;3.47;;;;;;;9.99;77.25;99907.13;5017264;28;20029;-79
2021/05/21 03:55:23;;;;;;;25.63;3.10;;;;;;;9.97;77.02;99907.44;5042869;28;20040;-79
2021/05/21 03:57:49;;;;;;;22.35;3.20;;;;;;;9.98;77.20;99897.97;5020043;28;20033;-79
2021/05/21 04:00:16;;;;;;;20.25;3.72;;;;;;;9.96;77.46;99905.78;5034444;28;20393;-79
2021/05/21 04:02:42;;;;;;;22.33;3.55;;;;;;;9.97;77.06;99907.44;5005687;28;20037;-79
2021/05/21 04:05:08;;;;;;;18.38;3.65;;;;;;;9.93;77.80;99898.06;5027974;28;20459;-79
2021/05/21 04:07:33;;;;;;;17.60;3.00;;;;;;;9.93;77.66;99897.25;5068721;28;20056;-79
2021/05/21 04:09:59;;;;;;;20.40;3.70;;;;;;;9.91;77.93;99897.53;5038001;28;20025;-79
2021/05/21 04:12:28;;;;;;;21.83;3.67;;;;;;;9.91;77.66;99893.94;5002683;28;20056;-79
2021/05/21 04:14:55;;;;;;;15.82;3.25;;;;;;;9.90;77.21;99904.22;5052819;28;20166;-79
2021/05/21 04:17:20;;;;;;;22.10;3.83;;;;;;;9.89;77.37;99899.81;5039566;28;20525;-79
2021/05/21 04:19:46;;;;;;;21.17;3.75;;;;;;;9.89;77.07;99899.81;5019737;28;20024;-79
2021/05/21 04:22:12;;;;;;;20.88;4.13;;;;;;;9.88;77.29;99898.16;5037249;28;20103;-78
2021/05/21 04:24:38;;;;;;;21.38;3.80;;;;;;;9.83;77.17;99895.44;5032809;28;20037;-78
2021/05/21 04:27:03;;;;;;;24.17;3.50;;;;;;;9.80;76.97;99902.44;5029538;28;20025;-79
2021/05/21 04:29:29;;;;;;;18.45;3.10;;;;;;;9.79;76.88;99895.25;5045480;28;20025;-78
2021/05/21 04:31:54;;;;;;;22.80;4.38;;;;;;;9.76;76.68;99906.13;5030095;28;20253;-78
2021/05/21 04:34:20;;;;;;;22.33;4.05;;;;;;;9.71;77.12;99895.13;5025860;28;20029;-79
2021/05/21 04:36:45;;;;;;;21.38;3.55;;;;;;;9.67;77.24;99905.16;5019495;28;20036;-78
2021/05/21 04:39:11;;;;;;;18.55;3.92;;;;;;;9.62;77.49;99892.22;5031971;28;20041;-78
2021/05/21 04:41:36;;;;;;;28.58;4.00;;;;;;;9.56;78.09;99897.03;5055271;28;20370;-78
2021/05/21 04:44:02;;;;;;;17.40;3.53;;;;;;;9.51;77.97;99897.09;5030302;28;20033;-79
2021/05/21 04:46:27;;;;;;;22.35;3.72;;;;;;;9.49;77.84;99896.56;5044716;28;20044;-78
2021/05/21 04:48:53;;;;;;;24.15;4.20;;;;;;;9.49;78.08;99901.31;5024984;28;20492;-78
2021/05/21 04:51:19;;;;;;;21.35;4.18;;;;;;;9.53;78.08;99892.09;5029063;28;20488;-78
2021/05/21 04:53:45;;;;;;;23.77;4.07;;;;;;;9.48;78.16;99892.16;5029409;28;20032;-78
2021/05/21 04:56:10;;;;;;;24.02;3.70;;;;;;;9.50;78.34;99887.16;5030536;28;20026;-78
2021/05/21 04:58:36;;;;;;;23.38;3.60;;;;;;;9.51;78.50;99891.56;5061782;28;20105;-78
2021/05/21 05:01:02;;;;;;;26.00;4.22;;;;;;;9.51;78.72;99888.78;5019745;28;20048;-78
2021/05/21 05:03:28;;;;;;;26.52;3.75;;;;;;;9.53;78.51;99883.78;5033275;28;20044;-78
2021/05/21 05:05:54;;;;;;;25.60;3.65;;;;;;;9.52;78.39;99893.19;5054550;28;20374;-78
2021/05/21 05:08:19;;;;;;;23.88;3.80;;;;;;;9.55;78.77;99884.28;5033529;28;20047;-78
2021/05/21 05:10:45;;;;;;;21.17;3.53;;;;;;;9.56;78.93;99880.41;5004568;28;20037;-78
2021/05/21 05:13:11;;;;;;;22.63;4.03;;;;;;;9.63;78.68;99874.44;5036517;28;20030;-78
2021/05/21 05:15:37;;;;;;;21.10;3.60;;;;;;;9.72;77.86;99877.34;5031014;28;20029;-79
2021/05/21 05:18:04;;;;;;;16.30;3.28;;;;;;;9.82;78.36;99872.44;5007743;28;20025;-78
2021/05/21 05:20:30;;;;;;;18.80;3.65;;;;;;;9.92;78.54;99882.56;5001619;28;20040;-78
2021/05/21 05:22:56;;;;;;;19.88;3.60;;;;;;;10.00;78.91;99876.31;5020254;28;20041;-79
2021/05/21 05:25:21;;;;;;;19.45;3.33;;;;;;;10.15;79.04;99879.91;5037506;28;20056;-79
2021/05/21 05:27:47;;;;;;;22.98;4.05;;;;;;;10.25;78.47;99869.44;5022078;28;20021;-79
2021/05/21 05:30:13;;;;;;;20.02;3.60;;;;;;;10.41;78.92;99864.44;5049511;28;20021;-79
2021/05/21 05:32:39;;;;;;;23.95;4.40;;;;;;;10.54;78.52;99864.75;5031948;28;20033;-78
2021/05/21 05:35:05;;;;;;;20.90;3.90;;;;;;;10.71;78.32;99867.69;5019916;28;20209;-79
2021/05/21 05:37:31;;;;;;;22.55;4.10;;;;;;;10.85;78.12;99876.84;5020238;28;20037;-79
2021/05/21 05:39:56;;;;;;;20.92;3.92;;;;;;;11.02;77.86;99876.19;5006717;28;20032;-79
2021/05/21 05:42:22;;;;;;;24.25;4.05;;;;;;;11.19;77.38;99872.72;5025096;28;20385;-79
2021/05/21 05:44:48;;;;;;;24.23;3.90;;;;;;;11.39;76.77;99875.06;5041690;28;20474;-79
2021/05/21 05:47:14;;;;;;;26.25;3.72;;;;;;;11.56;76.12;99873.50;5018894;28;20036;-79
2021/05/21 05:49:39;;;;;;;18.95;4.13;;;;;;;11.76;75.83;99872.19;5035864;28;20035;-79
2021/05/21 05:52:05;;;;;;;26.90;4.25;;;;;;;11.93;75.70;99865.94;5024419;28;20021;-80
2021/05/21 05:54:30;;;;;;;27.25;4.35;;;;;;;12.10;74.84;99870.78;5014646;28;20079;-79
2021/05/21 05:56:56;;;;;;;24.17;4.18;;;;;;;12.25;74.67;99860.03;5039187;28;20090;-79
2021/05/21 05:59:24;;;;;;;23.45;4.25;;;;;;;12.41;73.95;99852.06;5023001;28;20048;-78
2021/05/21 06:01:49;;;;;;;22.88;4.38;;;;;;;12.59;73.56;99852.97;5006877;28;20548;-77
2021/05/21 06:04:15;;;;;;;20.10;4.05;;;;;;;12.75;73.38;99853.31;5040598;28;20033;-78
2021/05/21 06:06:40;;;;;;;32.08;5.47;;;;;;;12.88;72.93;99851.53;5035696;28;20543;-78
2021/05/21 06:09:09;;;;;;;25.85;4.40;;;;;;;13.05;72.43;99845.97;5055603;28;20502;-78
2021/05/21 06:11:34;;;;;;;23.63;4.05;;;;;;;13.19;71.95;99845.81;5072566;28;20040;-79
2021/05/21 06:14:00;;;;;;;26.77;4.88;;;;;;;13.33;71.78;99848.47;5051791;28;20069;-78
2021/05/21 06:16:25;;;;;;;23.73;4.35;;;;;;;13.49;71.15;99849.63;5048374;28;20036;-78
2021/05/21 06:18:51;;;;;;;22.02;3.63;;;;;;;13.63;70.88;99844.69;5024653;28;20025;-78
2021/05/21 06:21:16;;;;;;;24.70;3.60;;;;;;;13.77;70.52;99841.69;5022033;28;20036;-78
2021/05/21 06:23:44;;;;;;;20.17;4.03;;;;;;;13.90;70.10;99845.47;5040121;28;20033;-78
2021/05/21 06:29:04;;;;;;;24.65;3.90;;;;;;;14.16;69.68;99850.94;5051856;28;20061;-79
2021/05/21 06:31:30;;;;;;;23.60;4.00;;;;;;;14.32;68.96;99848.44;5007343;28;20021;-78
2021/05/21 06:33:55;;;;;;;22.30;3.63;;;;;;;14.45;68.50;99840.94;5032014;28;20049;-79
2021/05/21 06:36:21;;;;;;;20.45;4.03;;;;;;;14.60;68.25;99836.78;5048074;28;20021;-76
2021/05/21 06:38:46;;;;;;;22.52;4.30;;;;;;;14.71;67.95;99832.47;5025104;28;20049;-77
2021/05/21 06:41:12;;;;;;;26.35;4.03;;;;;;;14.86;67.58;99845.84;5052235;28;20104;-79
2021/05/21 06:43:37;;;;;;;22.13;4.03;;;;;;;15.00;67.46;99839.19;5038269;28;20489;-79
2021/05/21 06:46:03;;;;;;;18.63;3.10;;;;;;;15.12;67.24;99833.66;5064334;28;20052;-79
2021/05/21 06:48:32;;;;;;;20.77;3.45;;;;;;;15.26;67.12;99842.59;5048808;28;20457;-79
2021/05/21 06:50:59;;;;;;;16.98;3.97;;;;;;;15.42;66.42;99840.00;5006223;28;20025;-79
2021/05/21 06:53:24;;;;;;;15.65;3.83;;;;;;;15.60;66.28;99840.63;5004047;28;20152;-80
2021/05/21 06:55:50;;;;;;;15.50;3.22;;;;;;;15.75;66.05;99842.81;5030992;28;20041;-80
2021/05/21 06:58:17;;;;;;;16.08;3.15;;;;;;;15.88;65.76;99846.50;5023354;28;20041;-80
2021/05/21 07:00:42;;;;;;;13.80;3.38;;;;;;;16.04;65.48;99841.84;5053933;28;20029;-80
2021/05/21 07:03:08;;;;;;;17.13;3.50;;;;;;;16.21;65.21;99837.19;5033409;28;20044;-80
2021/05/21 07:05:34;;;;;;;20.52;3.67;;;;;;;16.34;64.99;99835.25;5055585;28;20032;-80
2021/05/21 07:07:59;;;;;;;18.35;3.13;;;;;;;16.44;64.44;99837.59;5036622;28;20038;-80
2021/05/21 07:10:24;;;;;;;15.98;2.85;;;;;;;16.53;64.23;99832.69;5004945;28;20025;-79
2021/05/21 07:12:50;;;;;;;17.55;3.03;;;;;;;16.62;63.93;99836.16;5052774;28;20025;-80
2021/05/21 07:15:15;;;;;;;16.25;3.70;;;;;;;16.70;63.58;99832.44;5009045;28;20473;-80
2021/05/21 07:17:41;;;;;;;16.73;3.10;;;;;;;16.77;63.30;99834.69;5007786;28;20044;-80
2021/05/21 07:20:10;;;;;;;16.38;3.40;;;;;;;16.91;62.90;99834.28;5050341;28;20055;-80
2021/05/21 07:22:35;;;;;;;17.10;3.05;;;;;;;17.00;62.68;99832.19;5058544;28;20615;-80
2021/05/21 07:25:01;;;;;;;16.27;3.22;;;;;;;17.12;62.76;99832.16;5030720;28;20103;-80
2021/05/21 07:27:26;;;;;;;16.33;3.60;;;;;;;17.26;62.66;99830.94;5047052;28;20493;-79
2021/05/21 07:29:52;;;;;;;20.83;3.47;;;;;;;17.35;62.08;99824.00;5052783;28;20041;-80
2021/05/21 07:32:17;;;;;;;15.35;3.33;;;;;;;17.52;61.68;99828.50;5051716;28;20037;-81
2021/05/21 07:34:43;;;;;;;14.60;2.90;;;;;;;17.63;60.93;99817.56;5036827;28;20021;-81
2021/05/21 07:37:08;;;;;;;15.88;3.10;;;;;;;17.74;60.80;99815.06;5039867;28;20033;-81
2021/05/21 07:39:34;;;;;;;14.55;2.47;;;;;;;17.85;60.66;99833.06;5020291;28;20635;-80
2021/05/21 07:41:59;;;;;;;19.50;3.47;;;;;;;17.92;59.08;99824.84;5004779;28;20039;-77
2021/05/21 07:44:28;;;;;;;19.45;3.17;;;;;;;18.01;59.71;99831.09;5022005;28;20059;-80
2021/05/21 07:46:53;;;;;;;27.52;3.75;;;;;;;18.09;59.91;99815.25;5014766;28;20082;-79
2021/05/21 07:49:22;;;;;;;13.48;2.90;;;;;;;18.16;59.74;99823.03;5023214;28;20661;-80
2021/05/21 07:51:53;;;;;;;12.70;2.80;;;;;;;18.23;59.53;99818.41;5050755;28;20389;-79
2021/05/21 07:54:19;;;;;;;20.67;3.15;;;;;;;18.26;59.01;99826.13;5029225;28;20048;-79
2021/05/21 07:56:44;;;;;;;15.80;2.90;;;;;;;18.31;58.99;99819.44;5018511;28;20459;-79
2021/05/21 07:59:11;;;;;;;16.40;3.00;;;;;;;18.37;58.58;99828.41;5033601;28;20512;-79
2021/05/21 08:01:38;;;;;;;19.25;3.22;;;;;;;18.41;58.65;99813.22;5016862;28;20029;-79
2021/05/21 08:04:04;;;;;;;16.70;3.35;;;;;;;18.51;58.37;99825.94;5029768;28;20056;-79
2021/05/21 08:06:29;;;;;;;17.17;2.72;;;;;;;18.61;58.56;99830.19;5046184;28;20056;-79
2021/05/21 08:08:55;;;;;;;13.77;2.75;;;;;;;18.71;58.57;99824.81;4988047;28;20033;-79
2021/05/21 08:11:20;;;;;;;16.55;3.15;;;;;;;18.80;58.14;99827.44;5031006;28;20417;-79
2021/05/21 08:13:46;;;;;;;16.42;3.25;;;;;;;18.94;58.26;99835.41;5041597;28;20493;-80
2021/05/21 08:16:13;;;;;;;17.20;2.90;;;;;;;19.03;58.12;99832.38;5039387;28;20401;-80
2021/05/21 08:18:39;;;;;;;16.63;3.53;;;;;;;19.14;57.66;99834.28;5036613;28;20060;-80
2021/05/21 08:21:05;;;;;;;16.95;2.53;;;;;;;19.25;57.40;99836.50;5020791;28;20032;-80
2021/05/21 08:23:30;;;;;;;14.90;2.47;;;;;;;19.30;56.80;99837.00;5011790;28;20128;-80
2021/05/21 08:25:56;;;;;;;13.27;2.70;;;;;;;19.36;55.58;99838.38;5018384;28;20037;-79
2021/05/21 08:28:22;;;;;;;11.75;2.40;;;;;;;19.43;55.09;99832.06;5015340;28;20028;-79
2021/05/21 08:30:47;;;;;;;14.57;2.72;;;;;;;19.53;55.25;99839.09;5034929;28;20049;-80
2021/05/21 08:33:14;;;;;;;12.30;2.22;;;;;;;19.67;54.78;99835.78;5042289;28;20041;-79
2021/05/21 08:35:39;;;;;;;8.95;2.05;;;;;;;19.81;53.71;99828.44;5011258;28;20037;-80
2021/05/21 08:38:05;;;;;;;12.38;2.55;;;;;;;19.99;54.03;99827.97;5019833;28;20036;-80
2021/05/21 08:40:35;;;;;;;13.20;2.25;;;;;;;20.11;53.06;99819.31;4988637;28;20032;-80
2021/05/21 08:43:01;;;;;;;10.98;2.53;;;;;;;20.26;53.10;99837.31;5007251;28;20062;-79
2021/05/21 08:45:29;;;;;;;9.73;2.08;;;;;;;20.37;51.72;99834.69;5046529;28;20045;-79
2021/05/21 08:47:54;;;;;;;9.57;2.30;;;;;;;20.38;51.47;99833.47;5032968;28;20030;-79
2021/05/21 08:50:20;;;;;;;12.63;1.92;;;;;;;20.43;51.50;99839.63;5051930;28;20040;-80
2021/05/21 08:52:47;;;;;;;8.27;2.10;;;;;;;20.43;51.39;99827.53;5052129;28;20454;-79
2021/05/21 08:55:13;;;;;;;9.75;2.30;;;;;;;20.46;51.33;99824.75;5022456;28;20033;-80
2021/05/21 08:57:38;;;;;;;11.95;2.25;;;;;;;20.63;51.57;99822.66;5046173;28;20096;-76
2021/05/21 09:00:05;;;;;;;11.65;2.85;;;;;;;20.68;53.82;99814.66;5014550;28;20036;-79
2021/05/21 09:02:33;;;;;;;15.40;3.40;;;;;;;20.78;52.27;99803.91;5052822;28;20432;-78
2021/05/21 09:04:59;;;;;;;14.63;4.03;;;;;;;20.95;53.32;99811.84;5050706;28;20121;-77
2021/05/21 09:07:32;;;;;;;8.98;2.15;;;;;;;21.15;51.68;99807.69;5046186;28;20029;-79
2021/05/21 09:10:06;;;;;;;13.77;2.22;;;;;;;21.39;51.36;99808.41;5053427;28;20116;-79
2021/05/21 09:12:41;;;;;;;8.05;2.10;;;;;;;21.54;50.45;99804.59;5051103;28;20029;-78
2021/05/21 09:15:07;;;;;;;8.85;2.05;;;;;;;21.68;50.00;99797.47;5052733;28;20025;-79
2021/05/21 09:17:33;;;;;;;7.45;1.80;;;;;;;21.79;48.89;99804.88;5050874;28;20036;-79
2021/05/21 09:19:59;;;;;;;7.50;1.80;;;;;;;21.89;48.90;99803.34;5025228;28;20029;-78
2021/05/21 09:22:25;;;;;;;10.02;1.80;;;;;;;21.96;47.21;99800.59;5014694;28;20029;-78
2021/05/21 09:24:50;;;;;;;7.47;1.60;;;;;;;22.03;47.16;99797.00;5007044;28;20041;-78
2021/05/21 09:27:17;;;;;;;9.20;1.98;;;;;;;22.01;46.22;99805.09;5004257;28;20028;-78
2021/05/21 09:29:46;;;;;;;9.55;1.83;;;;;;;21.92;45.80;99793.28;5021913;28;20033;-78
2021/05/21 09:32:28;;;;;;;7.50;1.65;;;;;;;21.97;47.04;99793.72;5050010;28;20031;-78
2021/05/21 09:35:20;;;;;;;9.43;1.65;;;;;;;22.01;46.83;99794.59;5020459;28;20392;-78
2021/05/21 09:37:49;;;;;;;11.48;1.98;;;;;;;21.97;46.26;99788.06;5037165;28;20128;-79
2021/05/21 09:40:15;;;;;;;9.48;1.90;;;;;;;21.82;45.79;99803.28;5018316;28;20103;-78
2021/05/21 09:42:45;;;;;;;9.48;2.10;;;;;;;21.82;45.95;99803.28;5042182;28;20045;-79
2021/05/21 09:45:15;;;;;;;11.48;2.20;;;;;;;21.75;45.58;99789.06;5011388;28;20033;-79
2021/05/21 09:47:48;;;;;;;13.85;2.40;;;;;;;21.76;45.82;99802.81;5035213;28;20028;-79
2021/05/21 09:50:14;;;;;;;10.85;2.25;;;;;;;21.69;47.04;99773.66;5038369;28;20057;-79
2021/05/21 09:52:46;;;;;;;9.15;2.30;;;;;;;21.72;47.22;99781.34;5004630;28;20036;-79
2021/05/21 09:55:12;;;;;;;9.93;2.20;;;;;;;21.75;47.51;99786.22;5052749;28;20029;-79
2021/05/21 09:57:37;;;;;;;9.98;1.92;;;;;;;21.85;47.75;99783.53;5005755;28;20068;-79
2021/05/21 10:00:05;;;;;;;10.68;2.40;;;;;;;21.92;47.10;99779.94;5031225;28;20424;-78
2021/05/21 10:02:31;;;;;;;11.32;2.28;;;;;;;22.03;48.04;99780.84;5003525;28;20029;-79
2021/05/21 10:04:57;;;;;;;9.68;2.28;;;;;;;22.05;46.63;99764.31;5051487;28;20032;-79
2021/05/21 10:07:23;;;;;;;10.48;2.00;;;;;;;22.14;45.97;99778.13;5048711;28;20025;-79
2021/05/21 10:09:49;;;;;;;9.15;2.20;;;;;;;22.16;46.15;99778.56;5018463;28;20033;-78
2021/05/21 10:12:15;;;;;;;11.35;2.63;;;;;;;22.16;46.29;99772.09;5038162;28;20024;-79
2021/05/21 10:14:41;;;;;;;12.35;2.08;;;;;;;22.11;46.66;99778.09;5016787;28;20027;-79
2021/05/21 10:17:09;;;;;;;11.52;2.63;;;;;;;22.08;46.13;99782.53;5018387;28;20498;-78
2021/05/21 10:19:35;;;;;;;20.45;8.50;;;;;;;22.01;47.66;99774.81;5019515;28;20485;-80
2021/05/21 10:22:01;;;;;;;59.88;31.55;;;;;;;21.71;49.55;99771.25;5003508;28;20029;-80
2021/05/21 10:24:32;;;;;;;49.65;25.48;;;;;;;21.50;50.14;99769.00;5003780;28;20052;-79
2021/05/21 10:26:58;;;;;;;34.13;16.10;;;;;;;21.19;50.40;99766.19;5047398;28;20081;-79
2021/05/21 10:29:25;;;;;;;18.90;6.60;;;;;;;21.19;49.80;99763.38;5060973;28;20037;-80
2021/05/21 10:32:12;;;;;;;13.70;5.35;;;;;;;21.11;48.93;99761.63;5038097;28;20024;-79
2021/05/21 10:34:43;;;;;;;11.40;3.70;;;;;;;21.16;48.56;99752.84;5031966;28;20030;-80
2021/05/21 10:37:27;;;;;;;12.52;3.15;;;;;;;21.13;47.67;99753.59;5041637;28;20400;-79
2021/05/21 10:40:04;;;;;;;13.88;2.95;;;;;;;21.20;47.89;99747.22;5019950;28;20087;-79
2021/05/21 10:42:35;;;;;;;11.10;3.25;;;;;;;21.27;48.96;99750.16;5014749;28;20076;-79
2021/05/21 10:45:09;;;;;;;11.93;2.58;;;;;;;21.42;48.44;99751.16;5019953;28;21503;-79
2021/05/21 10:47:39;;;;;;;7.47;2.13;;;;;;;21.40;47.64;99714.84;4984875;28;20022;-79
2021/05/21 10:50:06;;;;;;;9.70;2.22;;;;;;;21.52;47.83;99739.16;4995843;28;20421;-79
2021/05/21 10:52:47;;;;;;;8.38;2.05;;;;;;;21.61;46.80;99745.31;4991599;28;20409;-80
2021/05/21 10:55:12;;;;;;;8.05;1.70;;;;;;;21.62;46.05;99743.31;5013141;28;20025;-77
2021/05/21 10:57:38;;;;;;;81.90;32.10;;;;;;;21.42;49.62;99742.69;4984945;28;20080;-77
2021/05/21 11:00:05;;;;;;;67.22;26.27;;;;;;;21.27;49.80;99733.22;5017926;28;20041;-79
2021/05/21 11:02:43;;;;;;;43.78;18.10;;;;;;;21.43;48.68;99733.03;4999699;28;20458;-75
2021/05/21 11:05:24;;;;;;;23.27;8.63;;;;;;;21.56;48.22;99734.38;5035259;28;20029;-80
2021/05/21 11:08:10;;;;;;;18.40;5.55;;;;;;;21.76;46.77;99735.00;5036701;28;20057;-80
2021/05/21 11:10:35;;;;;;;11.35;3.60;;;;;;;21.97;46.49;99737.19;5004631;28;20030;-80
2021/05/21 11:13:10;;;;;;;13.70;4.20;;;;;;;22.19;46.51;99728.94;5025983;28;20044;-80
2021/05/21 11:15:43;;;;;;;11.35;3.78;;;;;;;22.43;46.44;99724.69;4984311;28;20034;-80
2021/05/21 11:18:13;;;;;;;13.63;3.28;;;;;;;22.69;45.49;99732.09;4993614;28;20025;-79
2021/05/21 11:20:55;;;;;;;13.32;3.10;;;;;;;22.80;44.18;99732.16;4989173;28;20037;-79
2021/05/21 11:23:34;;;;;;;16.17;2.33;;;;;;;22.90;44.59;99720.06;4996640;28;20068;-79
2021/05/21 11:26:03;;;;;;;9.32;2.10;;;;;;;23.01;43.51;99726.63;4986886;28;20033;-79
2021/05/21 11:28:29;;;;;;;8.00;2.03;;;;;;;23.02;44.18;99719.78;4995321;28;20026;-79